createdAt,value
2022-09-12T00:01:37.561Z,58.96
2022-09-12T00:04:04.368Z,58.16
2022-09-12T00:06:33.890Z,57.67
2022-09-12T00:09:06.911Z,58.08
2022-09-12T00:11:39.478Z,57.25
2022-09-12T00:14:07.617Z,57.87
2022-09-12T00:16:35.904Z,57.82
2022-09-12T00:19:04.192Z,57.14
2022-09-12T00:21:33.350Z,57.59
2022-09-12T00:24:00.183Z,58.25
2022-09-12T00:26:27.135Z,58.47
2022-09-12T00:28:53.958Z,59.25
2022-09-12T00:31:24.141Z,59.25
2022-09-12T00:33:51.871Z,58.58
2022-09-12T00:36:21.353Z,58.25
2022-09-12T00:38:49.640Z,58.63
2022-09-12T00:41:21.179Z,58.23
2022-09-12T00:43:50.291Z,58.16
2022-09-12T00:46:29.101Z,57.88
2022-09-12T00:49:01.534Z,58.35
2022-09-12T00:51:31.008Z,58.12
2022-09-12T00:53:59.377Z,58.06
2022-09-12T00:56:27.367Z,57.98
2022-09-12T00:59:15.242Z,59.07
2022-09-12T01:01:44.698Z,59.21
2022-09-12T01:04:12.849Z,58.70
2022-09-12T01:06:42.264Z,59.15
2022-09-12T01:09:12.086Z,57.88
2022-09-12T01:11:40.341Z,58.75
2022-09-12T01:14:08.953Z,59.16
2022-09-12T01:16:37.140Z,59.55
2022-09-12T01:19:31.945Z,59.73
2022-09-12T01:22:30.856Z,59.62
2022-09-12T01:25:09.598Z,58.97
2022-09-12T01:27:47.220Z,58.93
2022-09-12T01:30:25.905Z,58.77
2022-09-12T01:32:52.390Z,58.50
2022-09-12T01:35:40.070Z,58.31
2022-09-12T01:38:31.412Z,58.43
2022-09-12T01:41:01.538Z,59.37
2022-09-12T01:43:38.284Z,58.38
2022-09-12T01:46:24.435Z,58.54
2022-09-12T01:49:12.862Z,58.55
2022-09-12T01:51:46.553Z,58.47
2022-09-12T01:54:26.028Z,58.52
2022-09-12T01:56:57.740Z,58.46
2022-09-12T01:59:38.686Z,58.65
2022-09-12T02:02:13.592Z,58.67
2022-09-12T02:04:53.163Z,58.41
2022-09-12T02:07:49.547Z,59.61
2022-09-12T02:10:28.052Z,59.73
2022-09-12T02:13:03.704Z,60.39
2022-09-12T02:15:37.112Z,59.50
2022-09-12T02:18:06.070Z,58.40
2022-09-12T02:20:47.859Z,58.71
2022-09-12T02:23:22.386Z,58.54
2022-09-12T02:25:54.557Z,58.99
2022-09-12T02:28:35.371Z,59.02
2022-09-12T02:31:17.360Z,58.40
2022-09-12T02:33:57.834Z,58.13
2022-09-12T02:36:50.037Z,58.71
2022-09-12T02:39:20.862Z,58.43
2022-09-12T02:41:51.228Z,59.91
2022-09-12T02:44:18.236Z,59.81
2022-09-12T02:46:50.712Z,59.89
2022-09-12T02:49:17.398Z,60.07
2022-09-12T02:51:45.579Z,60.41
2022-09-12T02:54:13.662Z,60.64
2022-09-12T02:56:43.428Z,59.36
2022-09-12T02:59:13.909Z,59.13
2022-09-12T03:01:51.522Z,58.26
2022-09-12T03:04:47.385Z,58.12
2022-09-12T03:07:44.607Z,58.36
2022-09-12T03:10:32.712Z,58.84
2022-09-12T03:13:17.387Z,59.39
2022-09-12T03:16:17.510Z,58.69
2022-09-12T03:19:19.258Z,59.26
2022-09-12T03:22:04.435Z,58.77
2022-09-12T03:24:38.113Z,58.46
2022-09-12T03:27:29.359Z,58.44
2022-09-12T03:29:56.365Z,58.24
2022-09-12T03:32:47.589Z,57.96
2022-09-12T03:35:17.944Z,58.93
2022-09-12T03:37:48.051Z,57.63
2022-09-12T03:40:15.597Z,57.92
2022-09-12T03:42:42.682Z,59.06
2022-09-12T03:45:10.616Z,58.36
2022-09-12T03:47:37.422Z,57.58
2022-09-12T03:50:04.640Z,58.63
2022-09-12T03:52:31.194Z,58.18
2022-09-12T03:54:57.724Z,57.58
2022-09-12T03:57:24.257Z,58.59
2022-09-12T03:59:50.812Z,58.98
2022-09-12T04:02:17.747Z,59.36
2022-09-12T04:04:45.061Z,59.38
2022-09-12T04:07:11.602Z,59.37
2022-09-12T04:09:38.230Z,58.06
2022-09-12T04:12:05.242Z,58.71
2022-09-12T04:14:31.758Z,58.44
2022-09-12T04:16:58.343Z,57.96
2022-09-12T04:19:26.118Z,58.33
2022-09-12T04:21:52.991Z,58.30
2022-09-12T04:24:19.587Z,59.22
2022-09-12T04:26:46.119Z,58.89
2022-09-12T04:29:12.983Z,57.84
2022-09-12T04:31:39.548Z,57.55
2022-09-12T04:34:06.781Z,57.62
2022-09-12T04:36:34.242Z,57.82
2022-09-12T04:39:01.946Z,58.02
2022-09-12T04:41:31.305Z,57.70
2022-09-12T04:44:03.097Z,58.15
2022-09-12T04:46:32.279Z,58.04
2022-09-12T04:48:59.090Z,58.10
2022-09-12T04:51:31.550Z,58.21
2022-09-12T04:54:00.939Z,57.71
2022-09-12T04:56:28.777Z,57.87
2022-09-12T04:58:59.525Z,57.59
2022-09-12T05:01:28.016Z,57.96
2022-09-12T05:03:55.190Z,57.92
2022-09-12T05:06:25.111Z,57.60
2022-09-12T05:08:52.919Z,57.84
2022-09-12T05:11:24.944Z,58.30
2022-09-12T05:13:52.992Z,58.19
2022-09-12T05:16:21.037Z,58.77
2022-09-12T05:18:48.976Z,59.06
2022-09-12T05:21:17.617Z,59.37
2022-09-12T05:23:44.592Z,59.38
2022-09-12T05:26:14.426Z,60.15
2022-09-12T05:28:41.929Z,60.55
2022-09-12T05:31:14.878Z,60.31
2022-09-12T05:33:43.425Z,59.92
2022-09-12T05:36:13.213Z,59.50
2022-09-12T05:38:42.141Z,59.56
2022-09-12T05:41:16.958Z,59.54
2022-09-12T05:43:45.531Z,59.35
2022-09-12T05:46:16.965Z,59.68
2022-09-12T05:48:44.853Z,60.44
2022-09-12T05:51:20.302Z,60.83
2022-09-12T05:53:49.982Z,60.65
2022-09-12T05:56:18.889Z,60.54
2022-09-12T05:58:47.970Z,60.02
2022-09-12T06:01:19.233Z,60.42
2022-09-12T06:03:49.015Z,61.50
2022-09-12T06:06:18.846Z,60.83
2022-09-12T06:08:47.647Z,60.27
2022-09-12T06:11:16.935Z,59.54
2022-09-12T06:13:44.342Z,59.15
2022-09-12T06:16:14.616Z,58.84
2022-09-12T06:18:42.103Z,59.22
2022-09-12T06:21:11.616Z,59.28
2022-09-12T06:23:39.987Z,58.83
2022-09-12T06:26:08.066Z,58.76
2022-09-12T06:28:36.724Z,59.39
2022-09-12T06:31:12.462Z,59.20
2022-09-12T06:33:44.605Z,59.07
2022-09-12T06:36:14.330Z,59.84
2022-09-12T06:38:41.036Z,60.17
2022-09-12T06:41:12.404Z,60.82
2022-09-12T06:43:40.394Z,61.59
2022-09-12T06:46:07.878Z,60.91
2022-09-12T06:48:38.321Z,61.44
2022-09-12T06:51:11.356Z,62.17
2022-09-12T06:53:38.185Z,61.02
2022-09-12T06:56:34.146Z,61.08
2022-09-12T06:59:00.678Z,62.71
2022-09-12T07:01:29.388Z,62.79
2022-09-12T07:03:59.219Z,64.27
2022-09-12T07:06:32.214Z,66.28
2022-09-12T07:09:00.891Z,67.92
2022-09-12T07:11:31.814Z,68.25
2022-09-12T07:13:59.957Z,69.20
2022-09-12T07:16:26.630Z,67.80
2022-09-12T07:18:55.661Z,67.45
2022-09-12T07:21:22.920Z,66.86
2022-09-12T07:23:51.711Z,66.84
2022-09-12T07:26:18.796Z,66.49
2022-09-12T07:28:45.580Z,66.03
2022-09-12T07:31:17.615Z,65.12
2022-09-12T07:33:44.406Z,64.74
2022-09-12T07:36:16.210Z,65.15
2022-09-12T07:38:43.957Z,64.41
2022-09-12T07:41:15.318Z,66.31
2022-09-12T07:43:44.769Z,67.18
2022-09-12T07:46:11.704Z,66.89
2022-09-12T07:48:39.149Z,68.53
2022-09-12T07:51:08.002Z,68.71
2022-09-12T07:53:40.107Z,68.08
2022-09-12T07:56:08.220Z,66.68
2022-09-12T07:58:36.555Z,66.43
2022-09-12T08:01:07.242Z,66.36
2022-09-12T08:03:34.110Z,66.22
2022-09-12T08:06:11.804Z,66.48
2022-09-12T08:08:39.020Z,67.08
2022-09-12T08:11:08.982Z,66.93
2022-09-12T08:13:37.072Z,66.25
2022-09-12T08:16:07.737Z,65.84
2022-09-12T08:18:36.405Z,66.17
2022-09-12T08:21:08.548Z,65.88
2022-09-12T08:23:35.158Z,65.45
2022-09-12T08:26:06.135Z,64.98
2022-09-12T08:28:34.010Z,65.35
2022-09-12T08:31:05.555Z,66.45
2022-09-12T08:33:33.703Z,66.54
2022-09-12T08:36:10.442Z,65.85
2022-09-12T08:38:39.138Z,66.86
2022-09-12T08:41:42.828Z,65.63
2022-09-12T08:44:39.872Z,63.91
2022-09-12T08:47:36.986Z,64.25
2022-09-12T08:50:09.780Z,64.03
2022-09-12T08:52:45.144Z,63.90
2022-09-12T08:55:56.234Z,62.66
2022-09-12T08:58:24.849Z,61.89
2022-09-12T09:01:16.460Z,61.75
2022-09-12T09:03:44.266Z,63.52
2022-09-12T09:06:36.147Z,62.19
2022-09-12T09:09:14.777Z,63.04
2022-09-12T09:12:06.527Z,62.43
2022-09-12T09:14:58.959Z,62.84
2022-09-12T09:17:40.549Z,62.14
2022-09-12T09:20:37.087Z,61.46
2022-09-12T09:23:28.579Z,62.05
2022-09-12T09:26:14.595Z,61.91
2022-09-12T09:28:52.531Z,61.63
2022-09-12T09:31:22.033Z,60.98
2022-09-12T09:33:56.624Z,61.15
2022-09-12T09:36:29.623Z,60.56
2022-09-12T09:39:05.891Z,59.67
2022-09-12T09:41:39.752Z,60.05
2022-09-12T09:46:38.324Z,58.44
2022-09-12T09:49:07.017Z,57.88
2022-09-12T09:51:37.599Z,58.89
2022-09-12T09:54:18.184Z,58.28
2022-09-12T09:56:44.793Z,58.14
2022-09-12T09:59:19.706Z,57.40
2022-09-12T10:01:54.948Z,56.24
2022-09-12T10:04:31.227Z,56.38
2022-09-12T10:07:00.843Z,55.94
2022-09-12T10:09:35.082Z,55.77
2022-09-12T10:12:20.969Z,55.47
2022-09-12T10:15:02.237Z,55.20
2022-09-12T10:17:39.249Z,54.93
2022-09-12T10:20:33.771Z,54.21
2022-09-12T10:23:03.638Z,53.02
2022-09-12T10:25:30.214Z,52.09
2022-09-12T10:28:00.322Z,50.73
2022-09-12T10:30:30.697Z,51.48
2022-09-12T10:33:06.401Z,52.48
2022-09-12T10:35:45.659Z,50.57
2022-09-12T10:38:32.708Z,51.48
2022-09-12T10:41:03.548Z,51.01
2022-09-12T10:43:35.999Z,51.29
2022-09-12T10:46:14.840Z,51.77
2022-09-12T10:48:42.326Z,50.36
2022-09-12T10:51:29.236Z,49.98
2022-09-12T10:53:59.986Z,47.73
2022-09-12T10:56:33.472Z,49.76
2022-09-12T10:59:05.637Z,49.20
2022-09-12T11:01:32.163Z,48.72
2022-09-12T11:04:35.812Z,49.12
2022-09-12T11:07:21.359Z,46.95
2022-09-12T11:10:13.797Z,47.66
2022-09-12T11:13:05.844Z,47.83
2022-09-12T11:15:45.750Z,48.36
2022-09-12T11:18:30.557Z,46.95
2022-09-12T11:21:13.946Z,47.37
2022-09-12T11:24:00.768Z,47.99
2022-09-12T11:27:01.131Z,47.73
2022-09-12T11:29:48.312Z,47.80
2022-09-12T11:32:43.269Z,47.98
2022-09-12T11:35:17.692Z,47.42
2022-09-12T11:37:51.134Z,47.22
2022-09-12T11:40:23.770Z,47.66
2022-09-12T11:42:54.574Z,48.16
2022-09-12T11:45:29.986Z,47.08
2022-09-12T11:48:03.952Z,46.39
2022-09-12T11:50:32.029Z,46.67
2022-09-12T11:53:11.232Z,46.36
2022-09-12T11:55:53.239Z,45.30
2022-09-12T11:58:24.820Z,44.97
2022-09-12T12:00:56.269Z,44.87
2022-09-12T12:03:30.722Z,44.81
2022-09-12T12:06:10.755Z,44.08
2022-09-12T12:08:41.089Z,44.58
2022-09-12T12:11:09.276Z,44.33
2022-09-12T12:13:56.536Z,44.99
2022-09-12T12:16:25.958Z,44.83
2022-09-12T12:19:01.981Z,44.64
2022-09-12T12:21:29.221Z,43.91
2022-09-12T12:24:07.563Z,43.39
2022-09-12T12:26:40.176Z,43.34
2022-09-12T12:29:13.441Z,41.49
2022-09-12T12:32:19.843Z,40.54
2022-09-12T12:34:47.617Z,41.68
2022-09-12T12:37:20.278Z,41.03
2022-09-12T12:39:47.849Z,40.44
2022-09-12T12:42:32.582Z,40.94
2022-09-12T12:45:06.504Z,38.98
2022-09-12T12:47:36.015Z,39.68
2022-09-12T12:50:07.910Z,39.25
2022-09-12T12:52:50.506Z,38.83
2022-09-12T12:55:38.594Z,39.15
2022-09-12T12:58:38.755Z,40.00
2022-09-12T13:01:16.762Z,39.14
2022-09-12T13:03:54.108Z,38.91
2022-09-12T13:06:36.866Z,39.52
2022-09-12T13:09:07.863Z,38.46
2022-09-12T13:11:38.571Z,39.25
2022-09-12T13:14:40.030Z,38.36
2022-09-12T13:17:07.839Z,39.37
2022-09-12T13:19:37.312Z,38.64
2022-09-12T13:22:09.778Z,38.10
2022-09-12T13:24:52.467Z,38.42
2022-09-12T13:27:22.105Z,38.50
2022-09-12T13:29:49.495Z,38.20
2022-09-12T13:32:18.045Z,37.67
2022-09-12T13:35:04.364Z,37.95
2022-09-12T13:37:48.643Z,37.77
2022-09-12T13:40:32.453Z,36.78
2022-09-12T13:43:23.212Z,36.73
2022-09-12T13:45:50.700Z,35.78
2022-09-12T13:48:21.962Z,35.37
2022-09-12T13:50:56.976Z,34.55
2022-09-12T13:53:26.599Z,34.43
2022-09-12T13:55:57.858Z,35.20
2022-09-12T13:58:29.962Z,33.97
2022-09-12T14:01:15.743Z,33.66
2022-09-12T14:04:12.667Z,33.89
2022-09-12T14:06:50.818Z,34.58
2022-09-12T14:09:26.903Z,34.68
2022-09-12T14:11:53.809Z,33.10
2022-09-12T14:14:37.807Z,32.40
2022-09-12T14:17:33.611Z,32.16
2022-09-12T14:20:03.804Z,31.95
2022-09-12T14:22:31.076Z,31.20
2022-09-12T14:24:59.502Z,32.44
2022-09-12T14:27:30.114Z,31.66
2022-09-12T14:30:02.801Z,31.17
2022-09-12T14:32:29.474Z,32.31
2022-09-12T14:35:12.217Z,32.11
2022-09-12T14:37:39.674Z,32.73
2022-09-12T14:40:26.613Z,31.31
2022-09-12T14:42:55.160Z,31.63
2022-09-12T14:45:28.588Z,32.66
2022-09-12T14:47:55.728Z,32.56
2022-09-12T14:50:27.676Z,32.15
2022-09-12T14:53:27.902Z,32.99
2022-09-12T14:56:03.576Z,31.77
2022-09-12T14:58:30.478Z,33.14
2022-09-12T15:00:57.708Z,33.05
2022-09-12T15:03:27.762Z,32.11
2022-09-12T15:05:55.112Z,30.85
2022-09-12T15:08:21.687Z,31.12
2022-09-12T15:10:48.692Z,30.84
2022-09-12T15:13:21.033Z,31.09
2022-09-12T15:15:50.397Z,31.14
2022-09-12T15:18:18.254Z,31.23
2022-09-12T15:20:47.285Z,32.04
2022-09-12T15:23:23.392Z,31.38
2022-09-12T15:25:50.148Z,32.32
2022-09-12T15:28:24.030Z,31.60
2022-09-12T15:30:53.081Z,31.50
2022-09-12T15:33:22.932Z,31.94
2022-09-12T15:35:52.401Z,31.83
2022-09-12T15:38:23.036Z,31.72
2022-09-12T15:40:53.725Z,31.94
2022-09-12T15:43:22.490Z,30.98
2022-09-12T15:45:51.518Z,30.44
2022-09-12T15:48:21.468Z,32.20
2022-09-12T15:50:48.449Z,34.50
2022-09-12T15:53:16.568Z,34.08
2022-09-12T15:55:43.942Z,33.78
2022-09-12T15:58:10.714Z,34.22
2022-09-12T16:00:37.357Z,34.00
2022-09-12T16:03:04.263Z,34.25
2022-09-12T16:05:30.940Z,33.98
2022-09-12T16:07:57.522Z,34.00
2022-09-12T16:10:27.775Z,33.99
2022-09-12T16:12:54.541Z,34.09
2022-09-12T16:15:23.991Z,33.77
2022-09-12T16:17:50.731Z,34.21
2022-09-12T16:20:18.832Z,34.02
2022-09-12T16:22:45.482Z,34.14
2022-09-12T16:25:13.466Z,33.90
2022-09-12T16:27:41.578Z,33.75
2022-09-12T16:30:11.415Z,34.48
2022-09-12T16:32:38.261Z,34.36
2022-09-12T16:35:10.343Z,34.32
2022-09-12T16:37:38.204Z,34.70
2022-09-12T16:40:07.559Z,34.20
2022-09-12T16:42:37.431Z,34.32
2022-09-12T16:45:06.727Z,34.32
2022-09-12T16:47:34.002Z,34.35
2022-09-12T16:50:04.434Z,35.20
2022-09-12T16:52:31.467Z,35.26
2022-09-12T16:54:58.175Z,35.27
2022-09-12T16:57:24.740Z,35.67
2022-09-12T16:59:52.373Z,35.68
2022-09-12T17:02:20.951Z,35.93
2022-09-12T17:04:50.202Z,35.74
2022-09-12T17:07:16.931Z,36.11
2022-09-12T17:09:47.789Z,36.15
2022-09-12T17:12:14.754Z,36.18
2022-09-12T17:14:41.273Z,36.52
2022-09-12T17:17:07.961Z,36.58
2022-09-12T17:19:34.463Z,36.79
2022-09-12T17:22:03.377Z,36.88
2022-09-12T17:24:29.974Z,37.05
2022-09-12T17:26:57.184Z,36.82
2022-09-12T17:29:23.809Z,37.45
2022-09-12T17:31:50.478Z,37.94
2022-09-12T17:34:17.730Z,38.63
2022-09-12T17:36:45.634Z,38.96
2022-09-12T17:39:13.590Z,39.32
2022-09-12T17:41:42.715Z,40.19
2022-09-12T17:44:11.754Z,39.80
2022-09-12T17:46:39.260Z,40.03
2022-09-12T17:49:08.624Z,40.80
2022-09-12T17:51:35.449Z,40.65
2022-09-12T17:54:06.541Z,40.51
2022-09-12T17:56:35.113Z,40.26
2022-09-12T17:59:02.047Z,40.96
2022-09-12T18:01:48.247Z,40.96
2022-09-12T18:04:14.885Z,41.69
2022-09-12T18:06:47.711Z,41.46
2022-09-12T18:09:17.618Z,41.47
2022-09-12T18:11:44.397Z,41.63
2022-09-12T18:14:14.166Z,41.61
2022-09-12T18:16:42.096Z,41.21
2022-09-12T18:19:09.498Z,42.12
2022-09-12T18:21:36.113Z,41.77
2022-09-12T18:24:03.090Z,41.77
2022-09-12T18:26:30.758Z,41.35
2022-09-12T18:28:58.156Z,41.57
2022-09-12T18:31:27.520Z,42.06
2022-09-12T18:33:54.695Z,41.98
2022-09-12T18:36:22.091Z,42.34
2022-09-12T18:38:49.807Z,41.82
2022-09-12T18:41:19.591Z,42.12
2022-09-12T18:43:47.098Z,42.04
2022-09-12T18:46:17.515Z,42.33
2022-09-12T18:48:45.031Z,42.44
2022-09-12T18:51:22.301Z,42.49
2022-09-12T18:53:54.826Z,42.28
2022-09-12T18:56:32.144Z,42.44
2022-09-12T18:58:59.826Z,42.49
2022-09-12T19:01:31.511Z,42.47
2022-09-12T19:03:59.147Z,42.34
2022-09-12T19:06:28.562Z,42.72
2022-09-12T19:08:56.364Z,43.29
2022-09-12T19:11:24.445Z,42.90
2022-09-12T19:13:52.272Z,43.34
2022-09-12T19:16:21.769Z,43.45
2022-09-12T19:18:49.680Z,43.48
2022-09-12T19:21:19.776Z,43.20
2022-09-12T19:23:46.373Z,43.07
2022-09-12T19:26:14.914Z,44.00
2022-09-12T19:28:42.407Z,43.65
2022-09-12T19:31:12.158Z,43.90
2022-09-12T19:33:39.296Z,43.49
2022-09-12T19:36:27.555Z,43.86
2022-09-12T19:39:00.975Z,44.57
2022-09-12T19:41:27.619Z,44.74
2022-09-12T19:43:56.094Z,44.85
2022-09-12T19:46:24.371Z,44.81
2022-09-12T19:48:52.472Z,44.65
2022-09-12T19:51:21.354Z,44.50
2022-09-12T19:53:50.146Z,45.31
2022-09-12T19:56:17.071Z,44.97
2022-09-12T19:58:46.276Z,45.33
2022-09-12T20:01:17.309Z,45.79
2022-09-12T20:03:44.193Z,45.95
2022-09-12T20:06:15.698Z,45.96
2022-09-12T20:08:43.847Z,46.56
2022-09-12T20:11:13.058Z,47.64
2022-09-12T20:13:39.885Z,47.36
2022-09-12T20:16:07.587Z,47.40
2022-09-12T20:18:34.559Z,47.13
2022-09-12T20:21:09.226Z,46.92
2022-09-12T20:23:35.822Z,46.98
2022-09-12T20:26:02.586Z,47.09
2022-09-12T20:28:29.200Z,47.16
2022-09-12T20:31:00.981Z,46.84
2022-09-12T20:33:27.624Z,47.01
2022-09-12T20:36:00.914Z,46.90
2022-09-12T20:38:27.575Z,46.80
2022-09-12T20:40:54.132Z,46.94
2022-09-12T20:43:21.467Z,47.31
2022-09-12T20:45:48.040Z,47.27
2022-09-12T20:48:14.572Z,47.38
2022-09-12T20:50:41.092Z,47.01
2022-09-12T20:53:07.601Z,47.95
2022-09-12T20:55:34.125Z,47.97
2022-09-12T20:58:00.757Z,48.90
2022-09-12T21:00:27.315Z,49.08
2022-09-12T21:02:53.895Z,49.74
2022-09-12T21:05:20.446Z,50.03
2022-09-12T21:07:47.079Z,49.97
2022-09-12T21:10:13.757Z,50.52
2022-09-12T21:12:40.290Z,50.44
2022-09-12T21:15:07.349Z,49.99
2022-09-12T21:17:33.983Z,50.81
2022-09-12T21:20:00.597Z,50.80
2022-09-12T21:22:27.160Z,50.53
2022-09-12T21:24:53.693Z,51.42
2022-09-12T21:27:20.534Z,51.12
2022-09-12T21:29:47.084Z,51.30
2022-09-12T21:32:14.345Z,50.22
2022-09-12T21:34:41.792Z,50.58
2022-09-12T21:37:08.339Z,50.09
2022-09-12T21:39:36.017Z,49.75
2022-09-12T21:42:02.605Z,49.57
2022-09-12T21:44:29.205Z,48.95
2022-09-12T21:46:55.776Z,49.47
2022-09-12T21:49:22.287Z,49.10
2022-09-12T21:51:48.894Z,48.91
2022-09-12T21:54:15.442Z,48.75
2022-09-12T21:56:42.032Z,48.70
2022-09-12T21:59:08.658Z,49.17
2022-09-12T22:01:35.638Z,48.70
2022-09-12T22:04:02.470Z,49.28
2022-09-12T22:06:28.989Z,49.27
2022-09-12T22:08:56.249Z,48.90
2022-09-12T22:11:23.632Z,48.65
2022-09-12T22:13:50.254Z,48.60
2022-09-12T22:16:17.725Z,48.65
2022-09-12T22:18:46.838Z,48.87
2022-09-12T22:21:15.948Z,49.08
2022-09-12T22:24:01.280Z,49.47
2022-09-12T22:26:28.925Z,49.22
2022-09-12T22:28:56.162Z,49.29
2022-09-12T22:31:23.070Z,49.32
2022-09-12T22:33:51.446Z,49.13
2022-09-12T22:36:18.178Z,49.33
2022-09-12T22:38:44.763Z,49.14
2022-09-12T22:41:12.296Z,49.73
2022-09-12T22:43:39.306Z,49.73
2022-09-12T22:46:07.838Z,50.46
2022-09-12T22:48:34.683Z,51.06
2022-09-12T22:51:01.176Z,51.98
2022-09-12T22:53:28.440Z,51.09
2022-09-12T22:55:55.044Z,50.87
2022-09-12T22:58:21.622Z,50.38
2022-09-12T23:00:51.512Z,50.25
2022-09-12T23:03:19.125Z,50.93
2022-09-12T23:05:47.201Z,50.71
2022-09-12T23:08:14.770Z,50.65
2022-09-12T23:10:41.328Z,50.78
2022-09-12T23:13:07.870Z,51.79
2022-09-12T23:15:34.406Z,51.83
2022-09-12T23:18:00.953Z,52.34
2022-09-12T23:20:27.577Z,52.39
2022-09-12T23:22:54.743Z,51.55
2022-09-12T23:25:26.261Z,51.05
2022-09-12T23:27:53.441Z,51.42
2022-09-12T23:30:21.424Z,51.87
2022-09-12T23:32:49.106Z,50.81
2022-09-12T23:35:18.366Z,52.26
2022-09-12T23:37:45.436Z,51.60
2022-09-12T23:40:12.049Z,52.35
2022-09-12T23:42:38.594Z,51.09
2022-09-12T23:45:05.419Z,51.45
2022-09-12T23:47:31.955Z,51.91
2022-09-12T23:49:58.518Z,52.23
2022-09-12T23:52:25.067Z,52.59
2022-09-12T23:54:51.578Z,52.54
2022-09-12T23:57:18.127Z,52.10
2022-09-12T23:59:44.742Z,52.29
